sensor_id;sensor_type;location;lat;lon;timestamp;P1;durP1;ratioP1;P2;durP2;ratioP2
19137;SDS011;68178;52.188;5.598;2023-07-31T00:01:20;3.38;;;2.80;;
19137;SDS011;68178;52.188;5.598;2023-07-31T00:03:45;3.50;;;3.20;;
19137;SDS011;68178;52.188;5.598;2023-07-31T00:06:11;3.25;;;2.80;;
19137;SDS011;68178;52.188;5.598;2023-07-31T00:08:37;3.17;;;2.88;;
19137;SDS011;68178;52.188;5.598;2023-07-31T00:11:03;5.03;;;3.22;;
19137;SDS011;68178;52.188;5.598;2023-07-31T00:13:28;3.58;;;3.28;;
19137;SDS011;68178;52.188;5.598;2023-07-31T00:15:54;3.58;;;3.05;;
19137;SDS011;68178;52.188;5.598;2023-07-31T00:18:19;4.72;;;3.83;;
19137;SDS011;68178;52.188;5.598;2023-07-31T00:20:45;3.95;;;3.13;;
19137;SDS011;68178;52.188;5.598;2023-07-31T00:23:11;4.07;;;3.67;;
19137;SDS011;68178;52.188;5.598;2023-07-31T00:25:36;5.32;;;4.20;;
19137;SDS011;68178;52.188;5.598;2023-07-31T00:28:02;5.13;;;4.35;;
19137;SDS011;68178;52.188;5.598;2023-07-31T00:30:27;4.50;;;4.10;;
19137;SDS011;68178;52.188;5.598;2023-07-31T00:32:53;7.10;;;4.53;;
19137;SDS011;68178;52.188;5.598;2023-07-31T00:35:19;6.10;;;4.47;;
19137;SDS011;68178;52.188;5.598;2023-07-31T00:37:44;9.98;;;4.72;;
19137;SDS011;68178;52.188;5.598;2023-07-31T00:40:10;8.70;;;5.05;;
19137;SDS011;68178;52.188;5.598;2023-07-31T00:42:35;9.15;;;5.60;;
19137;SDS011;68178;52.188;5.598;2023-07-31T00:45:01;6.97;;;5.40;;
19137;SDS011;68178;52.188;5.598;2023-07-31T00:47:26;6.15;;;5.25;;
19137;SDS011;68178;52.188;5.598;2023-07-31T00:49:52;10.93;;;5.38;;
19137;SDS011;68178;52.188;5.598;2023-07-31T00:52:18;6.65;;;5.65;;
19137;SDS011;68178;52.188;5.598;2023-07-31T00:54:44;8.68;;;6.20;;
19137;SDS011;68178;52.188;5.598;2023-07-31T00:57:09;8.13;;;5.90;;
19137;SDS011;68178;52.188;5.598;2023-07-31T00:59:35;11.10;;;6.97;;
19137;SDS011;68178;52.188;5.598;2023-07-31T01:02:01;11.15;;;7.43;;
19137;SDS011;68178;52.188;5.598;2023-07-31T01:04:27;10.38;;;7.47;;
19137;SDS011;68178;52.188;5.598;2023-07-31T01:09:52;17.40;;;9.35;;
19137;SDS011;68178;52.188;5.598;2023-07-31T01:12:27;23.23;;;11.10;;
19137;SDS011;68178;52.188;5.598;2023-07-31T01:17:26;32.45;;;13.20;;
19137;SDS011;68178;52.188;5.598;2023-07-31T01:19:51;30.98;;;12.80;;
19137;SDS011;68178;52.188;5.598;2023-07-31T01:25:00;33.47;;;14.20;;
19137;SDS011;68178;52.188;5.598;2023-07-31T01:28:06;33.60;;;13.45;;
19137;SDS011;68178;52.188;5.598;2023-07-31T01:30:37;31.55;;;11.77;;
19137;SDS011;68178;52.188;5.598;2023-07-31T01:33:08;22.20;;;10.82;;
19137;SDS011;68178;52.188;5.598;2023-07-31T01:35:34;23.55;;;9.50;;
19137;SDS011;68178;52.188;5.598;2023-07-31T01:38:01;22.90;;;9.30;;
19137;SDS011;68178;52.188;5.598;2023-07-31T01:40:26;18.55;;;7.90;;
19137;SDS011;68178;52.188;5.598;2023-07-31T01:42:52;15.05;;;7.40;;
19137;SDS011;68178;52.188;5.598;2023-07-31T01:45:18;19.30;;;8.77;;
19137;SDS011;68178;52.188;5.598;2023-07-31T01:47:43;15.02;;;6.82;;
19137;SDS011;68178;52.188;5.598;2023-07-31T01:50:09;12.05;;;5.45;;
19137;SDS011;68178;52.188;5.598;2023-07-31T01:52:35;10.38;;;5.13;;
19137;SDS011;68178;52.188;5.598;2023-07-31T01:55:00;10.32;;;5.35;;
19137;SDS011;68178;52.188;5.598;2023-07-31T01:57:26;7.93;;;4.20;;
19137;SDS011;68178;52.188;5.598;2023-07-31T01:59:52;8.60;;;4.70;;
19137;SDS011;68178;52.188;5.598;2023-07-31T02:02:18;9.60;;;4.65;;
19137;SDS011;68178;52.188;5.598;2023-07-31T02:04:48;6.32;;;5.10;;
19137;SDS011;68178;52.188;5.598;2023-07-31T02:07:14;10.23;;;4.78;;
19137;SDS011;68178;52.188;5.598;2023-07-31T02:09:39;14.98;;;5.10;;
19137;SDS011;68178;52.188;5.598;2023-07-31T02:12:05;13.85;;;6.05;;
19137;SDS011;68178;52.188;5.598;2023-07-31T02:14:33;17.65;;;7.20;;
19137;SDS011;68178;52.188;5.598;2023-07-31T02:16:59;16.58;;;6.60;;
19137;SDS011;68178;52.188;5.598;2023-07-31T02:19:25;23.48;;;9.93;;
19137;SDS011;68178;52.188;5.598;2023-07-31T02:21:50;25.40;;;10.50;;
19137;SDS011;68178;52.188;5.598;2023-07-31T02:24:16;33.55;;;12.32;;
19137;SDS011;68178;52.188;5.598;2023-07-31T02:26:41;37.20;;;13.02;;
19137;SDS011;68178;52.188;5.598;2023-07-31T02:29:07;34.13;;;13.52;;
19137;SDS011;68178;52.188;5.598;2023-07-31T02:31:33;40.90;;;13.13;;
19137;SDS011;68178;52.188;5.598;2023-07-31T02:33:59;42.47;;;14.05;;
19137;SDS011;68178;52.188;5.598;2023-07-31T02:36:24;41.05;;;15.23;;
19137;SDS011;68178;52.188;5.598;2023-07-31T02:38:50;37.22;;;13.55;;
19137;SDS011;68178;52.188;5.598;2023-07-31T02:41:15;32.92;;;12.05;;
19137;SDS011;68178;52.188;5.598;2023-07-31T02:43:41;34.95;;;13.70;;
19137;SDS011;68178;52.188;5.598;2023-07-31T02:46:07;40.58;;;14.63;;
19137;SDS011;68178;52.188;5.598;2023-07-31T02:48:32;35.83;;;13.90;;
19137;SDS011;68178;52.188;5.598;2023-07-31T02:50:58;32.42;;;14.00;;
19137;SDS011;68178;52.188;5.598;2023-07-31T02:53:23;40.15;;;15.52;;
19137;SDS011;68178;52.188;5.598;2023-07-31T02:55:49;33.80;;;13.73;;
19137;SDS011;68178;52.188;5.598;2023-07-31T02:58:15;38.00;;;13.55;;
19137;SDS011;68178;52.188;5.598;2023-07-31T03:00:44;37.85;;;13.20;;
19137;SDS011;68178;52.188;5.598;2023-07-31T03:03:10;39.00;;;13.02;;
19137;SDS011;68178;52.188;5.598;2023-07-31T03:05:36;33.65;;;13.00;;
19137;SDS011;68178;52.188;5.598;2023-07-31T03:08:01;38.17;;;12.63;;
19137;SDS011;68178;52.188;5.598;2023-07-31T03:10:27;40.53;;;14.05;;
19137;SDS011;68178;52.188;5.598;2023-07-31T03:12:52;36.10;;;12.27;;
19137;SDS011;68178;52.188;5.598;2023-07-31T03:15:18;33.30;;;13.18;;
19137;SDS011;68178;52.188;5.598;2023-07-31T03:17:43;38.28;;;14.45;;
19137;SDS011;68178;52.188;5.598;2023-07-31T03:20:09;43.78;;;14.93;;
19137;SDS011;68178;52.188;5.598;2023-07-31T03:22:35;38.83;;;15.85;;
19137;SDS011;68178;52.188;5.598;2023-07-31T03:25:01;43.03;;;15.50;;
19137;SDS011;68178;52.188;5.598;2023-07-31T03:27:27;49.67;;;16.25;;
19137;SDS011;68178;52.188;5.598;2023-07-31T03:29:53;43.05;;;16.60;;
19137;SDS011;68178;52.188;5.598;2023-07-31T03:32:19;32.33;;;15.27;;
19137;SDS011;68178;52.188;5.598;2023-07-31T03:34:44;42.75;;;17.27;;
19137;SDS011;68178;52.188;5.598;2023-07-31T03:37:10;43.13;;;16.05;;
19137;SDS011;68178;52.188;5.598;2023-07-31T03:39:35;43.00;;;16.60;;
19137;SDS011;68178;52.188;5.598;2023-07-31T03:42:01;46.63;;;16.15;;
19137;SDS011;68178;52.188;5.598;2023-07-31T03:44:27;47.83;;;15.73;;
19137;SDS011;68178;52.188;5.598;2023-07-31T03:46:52;45.05;;;17.60;;
19137;SDS011;68178;52.188;5.598;2023-07-31T03:49:18;40.97;;;16.35;;
19137;SDS011;68178;52.188;5.598;2023-07-31T03:51:44;45.47;;;15.95;;
19137;SDS011;68178;52.188;5.598;2023-07-31T03:54:09;49.03;;;16.35;;
19137;SDS011;68178;52.188;5.598;2023-07-31T03:56:35;48.92;;;17.45;;
19137;SDS011;68178;52.188;5.598;2023-07-31T03:59:01;38.05;;;16.15;;
19137;SDS011;68178;52.188;5.598;2023-07-31T04:01:26;43.47;;;15.57;;
19137;SDS011;68178;52.188;5.598;2023-07-31T04:03:52;42.83;;;15.75;;
19137;SDS011;68178;52.188;5.598;2023-07-31T04:06:17;37.65;;;15.75;;
19137;SDS011;68178;52.188;5.598;2023-07-31T04:08:43;33.75;;;14.43;;
19137;SDS011;68178;52.188;5.598;2023-07-31T04:11:10;48.15;;;15.75;;
19137;SDS011;68178;52.188;5.598;2023-07-31T04:13:36;46.45;;;15.63;;
19137;SDS011;68178;52.188;5.598;2023-07-31T04:16:02;44.20;;;15.82;;
19137;SDS011;68178;52.188;5.598;2023-07-31T04:18:28;47.67;;;15.48;;
19137;SDS011;68178;52.188;5.598;2023-07-31T04:20:55;46.13;;;15.48;;
19137;SDS011;68178;52.188;5.598;2023-07-31T04:23:23;45.53;;;16.25;;
19137;SDS011;68178;52.188;5.598;2023-07-31T04:25:49;37.78;;;14.38;;
19137;SDS011;68178;52.188;5.598;2023-07-31T04:28:14;36.65;;;14.50;;
19137;SDS011;68178;52.188;5.598;2023-07-31T04:30:40;46.08;;;16.58;;
19137;SDS011;68178;52.188;5.598;2023-07-31T04:33:05;52.22;;;15.27;;
19137;SDS011;68178;52.188;5.598;2023-07-31T04:35:31;43.72;;;16.73;;
19137;SDS011;68178;52.188;5.598;2023-07-31T04:37:57;43.80;;;16.98;;
19137;SDS011;68178;52.188;5.598;2023-07-31T04:40:22;50.28;;;16.38;;
19137;SDS011;68178;52.188;5.598;2023-07-31T04:42:48;48.60;;;15.45;;
19137;SDS011;68178;52.188;5.598;2023-07-31T04:45:14;45.10;;;16.52;;
19137;SDS011;68178;52.188;5.598;2023-07-31T04:47:39;35.78;;;15.68;;
19137;SDS011;68178;52.188;5.598;2023-07-31T04:50:05;39.97;;;15.75;;
19137;SDS011;68178;52.188;5.598;2023-07-31T04:52:31;40.63;;;15.13;;
19137;SDS011;68178;52.188;5.598;2023-07-31T04:54:57;39.97;;;15.43;;
19137;SDS011;68178;52.188;5.598;2023-07-31T04:57:23;33.88;;;14.52;;
19137;SDS011;68178;52.188;5.598;2023-07-31T04:59:48;36.65;;;13.88;;
19137;SDS011;68178;52.188;5.598;2023-07-31T05:02:14;37.88;;;15.23;;
19137;SDS011;68178;52.188;5.598;2023-07-31T05:04:40;40.17;;;14.98;;
19137;SDS011;68178;52.188;5.598;2023-07-31T05:07:05;37.20;;;16.92;;
19137;SDS011;68178;52.188;5.598;2023-07-31T05:09:31;40.40;;;16.88;;
19137;SDS011;68178;52.188;5.598;2023-07-31T05:11:57;38.45;;;16.40;;
19137;SDS011;68178;52.188;5.598;2023-07-31T05:14:22;42.88;;;15.90;;
19137;SDS011;68178;52.188;5.598;2023-07-31T05:16:48;39.70;;;16.58;;
19137;SDS011;68178;52.188;5.598;2023-07-31T05:19:13;42.47;;;16.98;;
19137;SDS011;68178;52.188;5.598;2023-07-31T05:21:39;45.03;;;16.63;;
19137;SDS011;68178;52.188;5.598;2023-07-31T05:24:05;38.17;;;15.93;;
19137;SDS011;68178;52.188;5.598;2023-07-31T05:26:30;44.03;;;16.20;;
19137;SDS011;68178;52.188;5.598;2023-07-31T05:28:56;35.60;;;14.63;;
19137;SDS011;68178;52.188;5.598;2023-07-31T05:31:23;43.58;;;15.73;;
19137;SDS011;68178;52.188;5.598;2023-07-31T05:33:49;34.88;;;14.57;;
19137;SDS011;68178;52.188;5.598;2023-07-31T05:36:15;38.55;;;16.23;;
19137;SDS011;68178;52.188;5.598;2023-07-31T05:38:41;34.08;;;14.27;;
19137;SDS011;68178;52.188;5.598;2023-07-31T05:41:09;43.50;;;14.65;;
19137;SDS011;68178;52.188;5.598;2023-07-31T05:43:34;30.65;;;13.82;;
19137;SDS011;68178;52.188;5.598;2023-07-31T05:46:00;32.28;;;12.45;;
19137;SDS011;68178;52.188;5.598;2023-07-31T05:48:26;26.42;;;12.35;;
19137;SDS011;68178;52.188;5.598;2023-07-31T05:50:52;22.95;;;12.05;;
19137;SDS011;68178;52.188;5.598;2023-07-31T05:53:17;32.75;;;11.93;;
19137;SDS011;68178;52.188;5.598;2023-07-31T05:55:43;25.58;;;11.70;;
19137;SDS011;68178;52.188;5.598;2023-07-31T05:58:08;23.50;;;10.00;;
19137;SDS011;68178;52.188;5.598;2023-07-31T06:00:34;20.40;;;9.98;;
19137;SDS011;68178;52.188;5.598;2023-07-31T06:03:00;20.25;;;8.77;;
19137;SDS011;68178;52.188;5.598;2023-07-31T06:05:25;24.67;;;9.85;;
19137;SDS011;68178;52.188;5.598;2023-07-31T06:07:53;19.08;;;10.10;;
19137;SDS011;68178;52.188;5.598;2023-07-31T06:10:18;19.20;;;10.65;;
19137;SDS011;68178;52.188;5.598;2023-07-31T06:12:44;23.95;;;10.80;;
19137;SDS011;68178;52.188;5.598;2023-07-31T06:15:10;22.67;;;12.35;;
19137;SDS011;68178;52.188;5.598;2023-07-31T06:17:36;25.48;;;12.35;;
19137;SDS011;68178;52.188;5.598;2023-07-31T06:20:01;22.70;;;12.20;;
19137;SDS011;68178;52.188;5.598;2023-07-31T06:22:30;27.15;;;14.52;;
19137;SDS011;68178;52.188;5.598;2023-07-31T06:24:55;28.90;;;13.93;;
19137;SDS011;68178;52.188;5.598;2023-07-31T06:27:21;21.05;;;12.70;;
19137;SDS011;68178;52.188;5.598;2023-07-31T06:29:46;26.13;;;13.18;;
19137;SDS011;68178;52.188;5.598;2023-07-31T06:32:12;24.58;;;13.40;;
19137;SDS011;68178;52.188;5.598;2023-07-31T06:34:38;25.15;;;12.95;;
19137;SDS011;68178;52.188;5.598;2023-07-31T06:37:04;22.10;;;13.27;;
19137;SDS011;68178;52.188;5.598;2023-07-31T06:39:30;25.10;;;13.23;;
19137;SDS011;68178;52.188;5.598;2023-07-31T06:41:55;22.63;;;12.50;;
19137;SDS011;68178;52.188;5.598;2023-07-31T06:44:21;25.42;;;13.48;;
19137;SDS011;68178;52.188;5.598;2023-07-31T06:46:46;21.27;;;11.95;;
19137;SDS011;68178;52.188;5.598;2023-07-31T06:49:12;22.92;;;13.38;;
19137;SDS011;68178;52.188;5.598;2023-07-31T06:51:40;20.13;;;12.98;;
19137;SDS011;68178;52.188;5.598;2023-07-31T06:54:05;23.33;;;12.30;;
19137;SDS011;68178;52.188;5.598;2023-07-31T06:56:31;22.25;;;12.75;;
19137;SDS011;68178;52.188;5.598;2023-07-31T06:58:57;19.95;;;11.48;;
19137;SDS011;68178;52.188;5.598;2023-07-31T07:01:22;19.42;;;10.82;;
19137;SDS011;68178;52.188;5.598;2023-07-31T07:03:48;16.23;;;9.60;;
19137;SDS011;68178;52.188;5.598;2023-07-31T07:06:15;18.40;;;10.43;;
19137;SDS011;68178;52.188;5.598;2023-07-31T07:08:41;18.00;;;9.88;;
19137;SDS011;68178;52.188;5.598;2023-07-31T07:11:07;19.33;;;10.82;;
19137;SDS011;68178;52.188;5.598;2023-07-31T07:13:33;16.02;;;10.60;;
19137;SDS011;68178;52.188;5.598;2023-07-31T07:15:59;13.07;;;10.38;;
19137;SDS011;68178;52.188;5.598;2023-07-31T07:18:24;14.27;;;10.23;;
19137;SDS011;68178;52.188;5.598;2023-07-31T07:20:50;18.17;;;10.57;;
19137;SDS011;68178;52.188;5.598;2023-07-31T07:23:17;13.93;;;9.18;;
19137;SDS011;68178;52.188;5.598;2023-07-31T07:25:45;16.10;;;10.43;;
19137;SDS011;68178;52.188;5.598;2023-07-31T07:28:11;16.00;;;10.70;;
19137;SDS011;68178;52.188;5.598;2023-07-31T07:30:37;22.10;;;12.02;;
19137;SDS011;68178;52.188;5.598;2023-07-31T07:33:03;19.63;;;10.75;;
19137;SDS011;68178;52.188;5.598;2023-07-31T07:35:29;16.45;;;10.65;;
19137;SDS011;68178;52.188;5.598;2023-07-31T07:37:54;14.40;;;10.90;;
19137;SDS011;68178;52.188;5.598;2023-07-31T07:40:20;16.38;;;10.13;;
19137;SDS011;68178;52.188;5.598;2023-07-31T07:42:46;14.68;;;11.02;;
19137;SDS011;68178;52.188;5.598;2023-07-31T07:45:12;10.98;;;9.60;;
19137;SDS011;68178;52.188;5.598;2023-07-31T07:47:38;13.70;;;10.98;;
19137;SDS011;68178;52.188;5.598;2023-07-31T07:50:07;14.77;;;10.95;;
19137;SDS011;68178;52.188;5.598;2023-07-31T07:52:33;14.48;;;10.95;;
19137;SDS011;68178;52.188;5.598;2023-07-31T07:54:59;14.93;;;11.77;;
19137;SDS011;68178;52.188;5.598;2023-07-31T07:57:25;13.48;;;11.10;;
19137;SDS011;68178;52.188;5.598;2023-07-31T07:59:51;15.77;;;12.13;;
19137;SDS011;68178;52.188;5.598;2023-07-31T08:02:17;14.00;;;10.85;;
19137;SDS011;68178;52.188;5.598;2023-07-31T08:04:42;13.88;;;12.00;;
19137;SDS011;68178;52.188;5.598;2023-07-31T08:07:10;11.80;;;10.57;;
19137;SDS011;68178;52.188;5.598;2023-07-31T08:09:37;14.95;;;10.90;;
19137;SDS011;68178;52.188;5.598;2023-07-31T08:12:02;13.02;;;11.63;;
19137;SDS011;68178;52.188;5.598;2023-07-31T08:14:29;12.38;;;10.80;;
19137;SDS011;68178;52.188;5.598;2023-07-31T08:16:55;13.27;;;11.27;;
19137;SDS011;68178;52.188;5.598;2023-07-31T08:19:20;11.35;;;9.65;;
19137;SDS011;68178;52.188;5.598;2023-07-31T08:21:46;12.88;;;10.50;;
19137;SDS011;68178;52.188;5.598;2023-07-31T08:24:12;13.57;;;10.82;;
19137;SDS011;68178;52.188;5.598;2023-07-31T08:26:37;11.70;;;9.15;;
19137;SDS011;68178;52.188;5.598;2023-07-31T08:29:03;12.68;;;9.88;;
19137;SDS011;68178;52.188;5.598;2023-07-31T08:31:28;9.93;;;8.93;;
19137;SDS011;68178;52.188;5.598;2023-07-31T08:33:54;9.73;;;8.65;;
19137;SDS011;68178;52.188;5.598;2023-07-31T08:36:20;12.65;;;9.13;;
19137;SDS011;68178;52.188;5.598;2023-07-31T08:38:45;10.95;;;8.02;;
19137;SDS011;68178;52.188;5.598;2023-07-31T08:41:11;13.10;;;8.93;;
19137;SDS011;68178;52.188;5.598;2023-07-31T08:43:38;9.15;;;8.25;;
19137;SDS011;68178;52.188;5.598;2023-07-31T08:46:04;9.13;;;8.23;;
19137;SDS011;68178;52.188;5.598;2023-07-31T08:48:30;9.05;;;8.15;;
19137;SDS011;68178;52.188;5.598;2023-07-31T08:50:57;11.10;;;10.00;;
19137;SDS011;68178;52.188;5.598;2023-07-31T08:53:23;11.30;;;9.13;;
19137;SDS011;68178;52.188;5.598;2023-07-31T08:55:48;9.82;;;8.93;;
19137;SDS011;68178;52.188;5.598;2023-07-31T08:58:17;8.50;;;7.60;;
19137;SDS011;68178;52.188;5.598;2023-07-31T09:00:43;7.78;;;7.07;;
19137;SDS011;68178;52.188;5.598;2023-07-31T09:03:14;7.50;;;6.90;;
19137;SDS011;68178;52.188;5.598;2023-07-31T09:05:42;7.28;;;6.65;;
19137;SDS011;68178;52.188;5.598;2023-07-31T09:08:10;7.78;;;6.85;;
19137;SDS011;68178;52.188;5.598;2023-07-31T09:10:40;6.95;;;5.47;;
19137;SDS011;68178;52.188;5.598;2023-07-31T09:13:06;7.65;;;6.97;;
19137;SDS011;68178;52.188;5.598;2023-07-31T09:15:33;7.82;;;7.13;;
19137;SDS011;68178;52.188;5.598;2023-07-31T09:18:00;8.40;;;7.70;;
19137;SDS011;68178;52.188;5.598;2023-07-31T09:20:26;7.93;;;7.20;;
19137;SDS011;68178;52.188;5.598;2023-07-31T09:22:52;8.40;;;6.95;;
19137;SDS011;68178;52.188;5.598;2023-07-31T09:25:21;7.32;;;6.63;;
19137;SDS011;68178;52.188;5.598;2023-07-31T09:27:58;8.82;;;7.80;;
19137;SDS011;68178;52.188;5.598;2023-07-31T09:30:25;9.68;;;8.77;;
19137;SDS011;68178;52.188;5.598;2023-07-31T09:32:52;9.55;;;8.65;;
19137;SDS011;68178;52.188;5.598;2023-07-31T09:35:30;8.45;;;7.63;;
19137;SDS011;68178;52.188;5.598;2023-07-31T09:37:57;8.90;;;8.00;;
19137;SDS011;68178;52.188;5.598;2023-07-31T09:40:34;7.97;;;7.10;;
19137;SDS011;68178;52.188;5.598;2023-07-31T09:43:01;7.63;;;6.93;;
19137;SDS011;68178;52.188;5.598;2023-07-31T09:45:28;7.82;;;7.13;;
19137;SDS011;68178;52.188;5.598;2023-07-31T09:47:55;7.50;;;6.82;;
19137;SDS011;68178;52.188;5.598;2023-07-31T09:50:22;7.50;;;6.80;;
19137;SDS011;68178;52.188;5.598;2023-07-31T09:52:50;8.70;;;7.72;;
19137;SDS011;68178;52.188;5.598;2023-07-31T09:55:16;8.50;;;7.70;;
19137;SDS011;68178;52.188;5.598;2023-07-31T09:57:44;8.35;;;7.45;;
19137;SDS011;68178;52.188;5.598;2023-07-31T10:00:11;8.52;;;7.63;;
19137;SDS011;68178;52.188;5.598;2023-07-31T10:02:38;7.75;;;7.05;;
19137;SDS011;68178;52.188;5.598;2023-07-31T10:05:05;7.53;;;6.82;;
19137;SDS011;68178;52.188;5.598;2023-07-31T10:07:34;9.45;;;7.85;;
19137;SDS011;68178;52.188;5.598;2023-07-31T10:10:07;9.40;;;7.93;;
19137;SDS011;68178;52.188;5.598;2023-07-31T10:12:34;8.35;;;7.55;;
19137;SDS011;68178;52.188;5.598;2023-07-31T10:15:01;7.22;;;6.50;;
19137;SDS011;68178;52.188;5.598;2023-07-31T10:17:27;7.38;;;6.32;;
19137;SDS011;68178;52.188;5.598;2023-07-31T10:19:54;6.60;;;5.72;;
19137;SDS011;68178;52.188;5.598;2023-07-31T10:22:23;7.28;;;5.50;;
19137;SDS011;68178;52.188;5.598;2023-07-31T10:24:49;5.95;;;5.30;;
19137;SDS011;68178;52.188;5.598;2023-07-31T10:27:17;7.35;;;5.43;;
19137;SDS011;68178;52.188;5.598;2023-07-31T10:29:43;7.10;;;6.40;;
19137;SDS011;68178;52.188;5.598;2023-07-31T10:32:12;6.72;;;6.03;;
19137;SDS011;68178;52.188;5.598;2023-07-31T10:34:39;6.93;;;6.20;;
19137;SDS011;68178;52.188;5.598;2023-07-31T10:39:55;8.77;;;7.78;;
19137;SDS011;68178;52.188;5.598;2023-07-31T10:42:30;9.25;;;7.90;;
19137;SDS011;68178;52.188;5.598;2023-07-31T10:45:08;11.27;;;8.02;;
19137;SDS011;68178;52.188;5.598;2023-07-31T10:47:43;12.75;;;8.77;;
19137;SDS011;68178;52.188;5.598;2023-07-31T10:50:17;12.20;;;8.75;;
19137;SDS011;68178;52.188;5.598;2023-07-31T10:52:52;10.05;;;8.82;;
19137;SDS011;68178;52.188;5.598;2023-07-31T10:55:23;10.45;;;8.50;;
19137;SDS011;68178;52.188;5.598;2023-07-31T10:57:49;10.43;;;8.48;;
19137;SDS011;68178;52.188;5.598;2023-07-31T11:00:22;9.27;;;8.13;;
19137;SDS011;68178;52.188;5.598;2023-07-31T11:02:56;12.05;;;9.45;;
19137;SDS011;68178;52.188;5.598;2023-07-31T11:05:39;9.57;;;8.65;;
19137;SDS011;68178;52.188;5.598;2023-07-31T11:10:46;14.05;;;9.95;;
19137;SDS011;68178;52.188;5.598;2023-07-31T11:13:13;11.40;;;9.80;;
19137;SDS011;68178;52.188;5.598;2023-07-31T11:15:39;10.43;;;9.32;;
19137;SDS011;68178;52.188;5.598;2023-07-31T11:18:05;9.57;;;8.45;;
19137;SDS011;68178;52.188;5.598;2023-07-31T11:20:33;8.65;;;7.82;;
19137;SDS011;68178;52.188;5.598;2023-07-31T11:23:01;10.35;;;8.98;;
19137;SDS011;68178;52.188;5.598;2023-07-31T11:25:28;9.05;;;8.15;;
19137;SDS011;68178;52.188;5.598;2023-07-31T11:27:55;9.80;;;7.50;;
19137;SDS011;68178;52.188;5.598;2023-07-31T11:30:21;7.60;;;6.90;;
19137;SDS011;68178;52.188;5.598;2023-07-31T11:32:47;8.02;;;6.40;;
19137;SDS011;68178;52.188;5.598;2023-07-31T11:35:12;7.15;;;6.55;;
19137;SDS011;68178;52.188;5.598;2023-07-31T11:37:39;7.32;;;5.85;;
19137;SDS011;68178;52.188;5.598;2023-07-31T11:40:06;6.65;;;6.05;;
19137;SDS011;68178;52.188;5.598;2023-07-31T11:42:32;7.82;;;5.70;;
19137;SDS011;68178;52.188;5.598;2023-07-31T11:44:58;5.60;;;4.82;;
19137;SDS011;68178;52.188;5.598;2023-07-31T11:47:31;5.93;;;5.32;;
19137;SDS011;68178;52.188;5.598;2023-07-31T11:49:59;4.80;;;4.38;;
19137;SDS011;68178;52.188;5.598;2023-07-31T11:52:27;4.40;;;3.58;;
19137;SDS011;68178;52.188;5.598;2023-07-31T11:54:54;4.90;;;4.50;;
19137;SDS011;68178;52.188;5.598;2023-07-31T11:57:20;4.65;;;4.25;;
19137;SDS011;68178;52.188;5.598;2023-07-31T11:59:47;5.40;;;4.55;;
19137;SDS011;68178;52.188;5.598;2023-07-31T12:02:13;5.32;;;4.82;;
19137;SDS011;68178;52.188;5.598;2023-07-31T12:04:39;5.65;;;5.05;;
19137;SDS011;68178;52.188;5.598;2023-07-31T12:07:05;6.88;;;5.82;;
19137;SDS011;68178;52.188;5.598;2023-07-31T12:09:31;7.03;;;5.63;;
19137;SDS011;68178;52.188;5.598;2023-07-31T12:11:56;6.88;;;5.22;;
19137;SDS011;68178;52.188;5.598;2023-07-31T12:14:26;8.25;;;6.18;;
19137;SDS011;68178;52.188;5.598;2023-07-31T12:16:56;8.10;;;6.68;;
19137;SDS011;68178;52.188;5.598;2023-07-31T12:19:27;7.68;;;6.75;;
19137;SDS011;68178;52.188;5.598;2023-07-31T12:21:54;8.88;;;7.10;;
19137;SDS011;68178;52.188;5.598;2023-07-31T12:24:20;9.30;;;8.23;;
19137;SDS011;68178;52.188;5.598;2023-07-31T12:26:47;9.48;;;8.50;;
19137;SDS011;68178;52.188;5.598;2023-07-31T12:29:13;10.60;;;9.50;;
19137;SDS011;68178;52.188;5.598;2023-07-31T12:31:40;10.82;;;9.73;;
19137;SDS011;68178;52.188;5.598;2023-07-31T12:34:15;11.50;;;10.30;;
19137;SDS011;68178;52.188;5.598;2023-07-31T12:36:42;11.75;;;10.52;;
19137;SDS011;68178;52.188;5.598;2023-07-31T12:39:08;9.40;;;8.50;;
19137;SDS011;68178;52.188;5.598;2023-07-31T12:41:33;9.15;;;8.18;;
19137;SDS011;68178;52.188;5.598;2023-07-31T12:44:00;11.40;;;8.70;;
19137;SDS011;68178;52.188;5.598;2023-07-31T12:46:26;9.27;;;8.38;;
19137;SDS011;68178;52.188;5.598;2023-07-31T12:48:51;8.90;;;7.82;;
19137;SDS011;68178;52.188;5.598;2023-07-31T12:51:17;8.40;;;7.70;;
19137;SDS011;68178;52.188;5.598;2023-07-31T12:53:42;7.93;;;7.28;;
19137;SDS011;68178;52.188;5.598;2023-07-31T12:56:08;8.18;;;7.40;;
19137;SDS011;68178;52.188;5.598;2023-07-31T12:58:33;7.68;;;6.97;;
19137;SDS011;68178;52.188;5.598;2023-07-31T13:00:59;9.40;;;7.75;;
19137;SDS011;68178;52.188;5.598;2023-07-31T13:03:25;8.98;;;8.20;;
19137;SDS011;68178;52.188;5.598;2023-07-31T13:05:50;9.02;;;8.23;;
19137;SDS011;68178;52.188;5.598;2023-07-31T13:08:17;8.70;;;7.88;;
19137;SDS011;68178;52.188;5.598;2023-07-31T13:10:42;10.57;;;9.32;;
19137;SDS011;68178;52.188;5.598;2023-07-31T13:13:09;9.93;;;9.05;;
19137;SDS011;68178;52.188;5.598;2023-07-31T13:15:35;9.60;;;8.68;;
19137;SDS011;68178;52.188;5.598;2023-07-31T13:18:00;10.60;;;9.50;;
19137;SDS011;68178;52.188;5.598;2023-07-31T13:20:26;10.13;;;9.23;;
19137;SDS011;68178;52.188;5.598;2023-07-31T13:22:52;10.25;;;9.35;;
19137;SDS011;68178;52.188;5.598;2023-07-31T13:25:17;11.15;;;10.15;;
19137;SDS011;68178;52.188;5.598;2023-07-31T13:27:43;10.65;;;9.75;;
19137;SDS011;68178;52.188;5.598;2023-07-31T13:30:08;10.95;;;9.88;;
19137;SDS011;68178;52.188;5.598;2023-07-31T13:32:34;11.52;;;10.38;;
19137;SDS011;68178;52.188;5.598;2023-07-31T13:35:04;12.45;;;11.35;;
19137;SDS011;68178;52.188;5.598;2023-07-31T13:37:33;13.30;;;12.20;;
19137;SDS011;68178;52.188;5.598;2023-07-31T13:39:59;13.70;;;12.50;;
19137;SDS011;68178;52.188;5.598;2023-07-31T13:42:25;13.70;;;12.50;;
19137;SDS011;68178;52.188;5.598;2023-07-31T13:44:51;13.77;;;12.48;;
19137;SDS011;68178;52.188;5.598;2023-07-31T13:47:17;12.70;;;11.50;;
19137;SDS011;68178;52.188;5.598;2023-07-31T13:49:42;12.43;;;11.00;;
19137;SDS011;68178;52.188;5.598;2023-07-31T13:52:08;9.98;;;9.02;;
19137;SDS011;68178;52.188;5.598;2023-07-31T13:54:34;9.60;;;8.70;;
19137;SDS011;68178;52.188;5.598;2023-07-31T13:57:00;10.45;;;9.35;;
19137;SDS011;68178;52.188;5.598;2023-07-31T13:59:25;14.32;;;10.98;;
19137;SDS011;68178;52.188;5.598;2023-07-31T14:01:51;12.88;;;11.45;;
19137;SDS011;68178;52.188;5.598;2023-07-31T14:04:17;11.13;;;8.57;;
19137;SDS011;68178;52.188;5.598;2023-07-31T14:06:43;9.45;;;8.35;;
19137;SDS011;68178;52.188;5.598;2023-07-31T14:09:09;8.18;;;7.28;;
19137;SDS011;68178;52.188;5.598;2023-07-31T14:11:34;8.60;;;7.80;;
19137;SDS011;68178;52.188;5.598;2023-07-31T14:14:00;8.75;;;7.43;;
19137;SDS011;68178;52.188;5.598;2023-07-31T14:16:29;8.95;;;8.15;;
19137;SDS011;68178;52.188;5.598;2023-07-31T14:18:55;9.32;;;8.55;;
19137;SDS011;68178;52.188;5.598;2023-07-31T14:21:20;10.98;;;9.88;;
19137;SDS011;68178;52.188;5.598;2023-07-31T14:23:46;12.00;;;10.38;;
19137;SDS011;68178;52.188;5.598;2023-07-31T14:26:12;11.27;;;10.18;;
19137;SDS011;68178;52.188;5.598;2023-07-31T14:28:37;12.07;;;10.98;;
19137;SDS011;68178;52.188;5.598;2023-07-31T14:31:03;13.45;;;12.02;;
19137;SDS011;68178;52.188;5.598;2023-07-31T14:33:29;14.25;;;12.75;;
19137;SDS011;68178;52.188;5.598;2023-07-31T14:35:54;14.85;;;13.35;;
19137;SDS011;68178;52.188;5.598;2023-07-31T14:38:20;16.80;;;14.80;;
19137;SDS011;68178;52.188;5.598;2023-07-31T14:40:46;17.83;;;15.70;;
19137;SDS011;68178;52.188;5.598;2023-07-31T14:43:12;20.05;;;15.27;;